Time,TemperatureF,DewpointF,PressureIn,WindDirection,WindDirectionDegrees,WindSpeedMPH,WindSpeedGustMPH,Humidity,HourlyPrecipIn,Conditions,Clouds,dailyrainin,SoftwareType,DateUTC
2013-03-10 00:00:00,77.2,73.0,29.82,SE,135,4.4,11.3,87,0.00,,SHRA,0.00,VWS V13.01,2013-03-09 14:00:00,
2013-03-10 00:15:00,76.4,72.2,29.81,SE,135,3.1,8.7,87,0.00,,SHRA,0.00,VWS V13.01,2013-03-09 14:15:00,
2013-03-10 00:30:00,76.4,72.6,29.81,ESE,112,1.9,6.2,88,0.00,,SHRA,0.00,VWS V13.01,2013-03-09 14:30:00,
2013-03-10 00:45:00,76.1,72.3,29.81,SE,135,4.4,16.3,88,0.00,,SHRA,0.00,VWS V13.01,2013-03-09 14:45:00,
2013-03-10 01:00:00,75.8,72.3,29.81,SE,135,4.4,18.7,89,0.00,,SHRA,0.00,VWS V13.01,2013-03-09 15:00:00,
2013-03-10 01:15:00,75.4,72.3,29.80,SE,135,3.1,11.3,90,0.01,,SHRA,0.01,VWS V13.01,2013-03-09 15:15:00,
2013-03-10 01:30:00,74.9,71.8,29.79,WSW,248,4.4,12.5,90,0.01,,SHRA,0.01,VWS V13.01,2013-03-09 15:30:00,
2013-03-10 01:45:00,75.1,71.3,29.78,SW,225,1.9,7.5,88,0.01,,SHRA,0.01,VWS V13.01,2013-03-09 15:45:00,
2013-03-10 02:00:00,75.4,70.9,29.78,SE,135,1.9,5.0,86,0.01,,SHRA,0.01,VWS V13.01,2013-03-09 16:00:00,
2013-03-10 02:15:00,75.8,70.6,29.77,ESE,112,1.9,5.0,84,0.01,,SHRA,0.01,VWS V13.01,2013-03-09 16:15:00,
2013-03-10 02:30:00,76.1,70.6,29.76,SSW,202,1.9,5.0,83,0.00,,SHRA,0.01,VWS V13.01,2013-03-09 16:30:00,
2013-03-10 02:45:00,76.0,71.2,29.76,SE,135,0.6,3.8,85,0.00,,SHRA,0.01,VWS V13.01,2013-03-09 16:45:00,
2013-03-10 03:00:00,75.4,71.3,29.76,ESE,112,0.6,1.3,87,0.00,,SHRA,0.01,VWS V13.01,2013-03-09 17:00:00,
2013-03-10 03:15:00,75.0,71.2,29.75,ESE,112,0.6,2.5,88,0.00,,SHRA,0.01,VWS V13.01,2013-03-09 17:15:00,
2013-03-10 03:30:00,74.9,71.1,29.74,SE,135,3.1,5.0,88,0.00,,SHRA,0.01,VWS V13.01,2013-03-09 17:30:00,
2013-03-10 03:45:00,75.0,71.2,29.75,SE,135,1.9,5.0,88,0.00,,SHRA,0.01,VWS V13.01,2013-03-09 17:45:00,
2013-03-10 04:00:00,75.1,71.6,29.75,SE,135,1.9,5.0,89,0.00,,SHRA,0.01,VWS V13.01,2013-03-09 18:00:00,
2013-03-10 04:15:00,74.9,71.8,29.75,SE,135,1.9,5.0,90,0.00,,SHRA,0.01,VWS V13.01,2013-03-09 18:15:00,
2013-03-10 04:30:00,74.9,71.8,29.75,WSW,248,1.9,3.8,90,0.01,,SHRA,0.02,VWS V13.01,2013-03-09 18:30:00,
2013-03-10 04:45:00,74.6,71.8,29.75,WSW,248,1.9,5.0,91,0.01,,SHRA,0.02,VWS V13.01,2013-03-09 18:45:00,
2013-03-10 05:00:00,74.4,71.6,29.75,WSW,248,0.6,0.0,91,0.01,,SHRA,0.02,VWS V13.01,2013-03-09 19:00:00,
2013-03-10 05:15:00,74.4,71.9,29.75,WSW,248,0.6,0.0,92,0.01,,SHRA,0.02,VWS V13.01,2013-03-09 19:15:00,
2013-03-10 05:30:00,74.4,71.9,29.75,WSW,248,0.6,0.0,92,0.01,,SHRA,0.02,VWS V13.01,2013-03-09 19:30:00,
2013-03-10 05:45:00,74.4,71.6,29.75,WSW,248,0.6,0.0,91,0.00,,SHRA,0.02,VWS V13.01,2013-03-09 19:45:00,
2013-03-10 06:00:00,74.7,71.6,29.75,WSW,248,0.6,0.0,90,0.00,,SHRA,0.02,VWS V13.01,2013-03-09 20:00:00,
2013-03-10 06:15:00,74.8,71.3,29.76,WSW,248,0.6,0.0,89,0.00,,SHRA,0.02,VWS V13.01,2013-03-09 20:15:00,
2013-03-10 06:30:00,74.9,71.4,29.76,WSW,248,0.6,0.0,89,0.00,,SHRA,0.02,VWS V13.01,2013-03-09 20:30:00,
2013-03-10 06:45:00,75.2,71.1,29.76,SE,135,0.6,3.8,87,0.00,,SHRA,0.02,VWS V13.01,2013-03-09 20:45:00,
2013-03-10 07:00:00,75.9,71.4,29.77,ESE,112,1.9,3.8,86,0.00,,SHRA,0.02,VWS V13.01,2013-03-09 21:00:00,
2013-03-10 07:15:00,76.2,71.4,29.78,ESE,112,1.9,6.2,85,0.00,,SHRA,0.02,VWS V13.01,2013-03-09 21:15:00,
2013-03-10 07:34:00,76.7,71.2,29.78,SE,135,1.9,3.8,83,0.00,,SHRA,0.02,VWS V13.01,2013-03-09 21:34:00,
2013-03-10 07:39:00,77.4,71.8,29.79,SSE,166,0.6,3.8,83,0.00,,SHRA,0.02,VWS V13.01,2013-03-09 21:39:00,
2013-03-10 07:44:00,77.7,72.1,29.79,ESE,102,1.9,3.8,83,0.00,,SHRA,0.02,VWS V13.01,2013-03-09 21:44:00,
2013-03-10 07:49:00,78.6,72.7,29.79,SSW,192,0.6,3.8,82,0.00,,BKN060,0.02,VWS V13.01,2013-03-09 21:49:00,
2013-03-10 07:54:00,78.9,72.6,29.79,SW,219,3.1,3.8,81,0.00,,BKN060,0.02,VWS V13.01,2013-03-09 21:54:00,
2013-03-10 07:59:00,78.9,72.6,29.79,ESE,108,1.9,3.8,81,0.00,,BKN060,0.02,VWS V13.01,2013-03-09 21:59:00,
2013-03-10 08:04:00,78.8,72.5,29.79,ESE,108,3.1,3.8,81,0.00,,BKN060,0.02,VWS V13.01,2013-03-09 22:04:00,
2013-03-10 08:09:00,79.3,73.0,29.79,SE,131,1.9,3.8,81,0.00,,BKN060,0.02,VWS V13.01,2013-03-09 22:09:00,
2013-03-10 08:14:00,80.6,74.2,29.79,SE,130,1.9,3.8,81,0.00,,BKN060,0.02,VWS V13.01,2013-03-09 22:14:00,
2013-03-10 08:19:00,81.1,73.6,29.80,ESE,121,5.6,5.6,78,0.00,,SCT075,0.02,VWS V13.01,2013-03-09 22:19:00,
2013-03-10 08:24:00,81.6,73.3,29.80,SE,137,1.9,3.8,76,0.00,,SCT075,0.02,VWS V13.01,2013-03-09 22:24:00,
2013-03-10 08:30:00,81.4,73.1,29.80,SE,135,3.1,8.7,76,0.00,,SCT075,0.02,VWS V13.01,2013-03-09 22:30:00,
2013-03-10 08:45:00,82.0,73.7,29.80,SE,135,4.4,11.3,76,0.00,,SCT075,0.02,VWS V13.01,2013-03-09 22:45:00,
2013-03-10 09:00:00,82.7,74.0,29.81,SE,135,4.4,10.0,75,0.00,,SCT075,0.02,VWS V13.01,2013-03-09 23:00:00,
2013-03-10 09:15:00,83.7,74.1,29.81,SE,135,4.4,15.0,73,0.00,,SCT075,0.02,VWS V13.01,2013-03-09 23:15:00,
2013-03-10 09:30:00,83.0,74.3,29.81,SE,135,4.4,10.0,75,0.00,,SCT075,0.02,VWS V13.01,2013-03-09 23:30:00,
2013-03-10 09:45:00,82.7,74.0,29.81,ESE,112,5.6,12.5,75,0.00,,SCT075,0.02,VWS V13.01,2013-03-09 23:45:00,
2013-03-10 10:00:00,84.2,74.2,29.81,ESE,112,5.6,11.3,72,0.00,,SCT075,0.02,VWS V13.01,2013-03-10 00:00:00,
2013-03-10 10:15:00,85.7,75.2,29.80,ESE,112,3.1,12.5,71,0.00,,SCT075,0.02,VWS V13.01,2013-03-10 00:15:00,
2013-03-10 10:30:00,86.0,75.5,29.80,SE,135,4.4,10.0,71,0.00,,SCT075,0.02,VWS V13.01,2013-03-10 00:30:00,
2013-03-10 10:45:00,85.0,74.6,29.80,SE,135,5.6,16.3,71,0.00,,SCT075,0.02,VWS V13.01,2013-03-10 00:45:00,
2013-03-10 11:00:00,84.8,74.4,29.79,SE,135,6.9,16.3,71,0.00,,SCT075,0.02,VWS V13.01,2013-03-10 01:00:00,
2013-03-10 11:15:00,85.6,75.5,29.79,ESE,112,8.1,18.7,72,0.00,,SCT075,0.02,VWS V13.01,2013-03-10 01:15:00,
2013-03-10 11:30:00,84.9,76.5,29.80,ESE,112,6.9,16.3,76,0.00,,SCT075,0.02,VWS V13.01,2013-03-10 01:30:00,
2013-03-10 11:45:00,80.9,75.6,29.80,SE,135,5.6,17.5,84,0.02,,SCT075,0.03,VWS V13.01,2013-03-10 01:45:00,
2013-03-10 12:00:00,81.0,73.5,29.79,SE,135,4.4,12.5,78,0.02,,SCT075,0.03,VWS V13.01,2013-03-10 02:00:00,
2013-03-10 12:15:00,82.2,75.0,29.78,ESE,112,4.4,11.3,79,0.02,,SCT075,0.03,VWS V13.01,2013-03-10 02:15:00,
2013-03-10 12:30:00,83.7,74.9,29.78,ESE,112,4.4,16.3,75,0.02,,SCT075,0.03,VWS V13.01,2013-03-10 02:30:00,
2013-03-10 12:45:00,82.8,74.5,29.78,ESE,112,6.9,17.5,76,0.02,,SCT075,0.03,VWS V13.01,2013-03-10 02:45:00,
2013-03-10 13:00:00,82.1,74.6,29.77,ESE,112,4.4,13.7,78,0.00,,SCT075,0.03,VWS V13.01,2013-03-10 03:00:00,
2013-03-10 13:15:00,83.7,74.9,29.76,WSW,248,4.4,13.7,75,0.00,,SCT075,0.03,VWS V13.01,2013-03-10 03:15:00,
2013-03-10 13:30:00,83.6,74.4,29.75,ESE,112,4.4,10.0,74,0.00,,SCT075,0.03,VWS V13.01,2013-03-10 03:30:00,
2013-03-10 13:45:00,83.7,74.9,29.74,WSW,248,3.1,8.7,75,0.00,,SCT075,0.03,VWS V13.01,2013-03-10 03:45:00,
2013-03-10 14:00:00,84.0,75.6,29.74,SE,135,3.1,11.3,76,0.00,,SCT075,0.03,VWS V13.01,2013-03-10 04:00:00,
2013-03-10 14:15:00,82.6,75.1,29.73,SE,135,1.9,11.3,78,0.01,,SCT075,0.04,VWS V13.01,2013-03-10 04:15:00,
2013-03-10 14:30:00,83.2,73.7,29.73,SE,135,6.9,20.0,73,0.01,,SCT075,0.04,VWS V13.01,2013-03-10 04:30:00,
2013-03-10 14:45:00,83.1,74.8,29.73,SE,135,4.4,12.5,76,0.01,,SCT075,0.04,VWS V13.01,2013-03-10 04:45:00,
2013-03-10 15:00:00,84.2,74.6,29.73,SE,135,4.4,12.5,73,0.01,,SCT075,0.04,VWS V13.01,2013-03-10 05:00:00,
2013-03-10 15:15:00,83.2,75.2,29.73,SE,135,5.6,15.0,77,0.01,,SCT075,0.04,VWS V13.01,2013-03-10 05:15:00,
2013-03-10 15:30:00,83.0,75.1,29.73,SE,135,4.4,12.5,77,0.00,,SCT075,0.04,VWS V13.01,2013-03-10 05:30:00,
2013-03-10 15:45:00,83.2,74.5,29.73,ESE,112,4.4,13.7,75,0.00,,SCT075,0.04,VWS V13.01,2013-03-10 05:45:00,
2013-03-10 16:00:00,83.0,73.9,29.73,SE,135,3.1,10.0,74,0.00,,SCT075,0.04,VWS V13.01,2013-03-10 06:00:00,
2013-03-10 16:15:00,82.9,73.4,29.72,South,180,3.1,7.5,73,0.00,,SCT075,0.04,VWS V13.01,2013-03-10 06:15:00,
2013-03-10 16:30:00,84.1,73.7,29.72,ESE,112,3.1,7.5,71,0.00,,SCT075,0.04,VWS V13.01,2013-03-10 06:30:00,
2013-03-10 16:45:00,83.8,74.6,29.72,SE,135,3.1,6.2,74,0.00,,SCT075,0.04,VWS V13.01,2013-03-10 06:45:00,
2013-03-10 17:00:00,83.0,73.9,29.72,ESE,112,3.1,7.5,74,0.00,,SCT075,0.04,VWS V13.01,2013-03-10 07:00:00,
2013-03-10 17:15:00,82.6,74.3,29.72,SE,135,4.4,10.0,76,0.00,,SCT075,0.04,VWS V13.01,2013-03-10 07:15:00,
2013-03-10 17:30:00,82.4,73.7,29.73,ESE,112,4.4,12.5,75,0.00,,SCT075,0.04,VWS V13.01,2013-03-10 07:30:00,
2013-03-10 17:45:00,82.3,73.6,29.73,SE,135,4.4,12.5,75,0.00,,SCT075,0.04,VWS V13.01,2013-03-10 07:45:00,
2013-03-10 18:00:00,82.1,73.4,29.74,SE,135,4.4,8.7,75,0.00,,SCT075,0.04,VWS V13.01,2013-03-10 08:00:00,
2013-03-10 18:15:00,81.8,73.1,29.74,ESE,112,3.1,10.0,75,0.00,,SCT075,0.04,VWS V13.01,2013-03-10 08:15:00,
2013-03-10 18:30:00,81.1,74.3,29.75,ESE,112,5.6,13.7,80,0.00,,SCT075,0.04,VWS V13.01,2013-03-10 08:30:00,
2013-03-10 18:45:00,80.2,73.8,29.75,ESE,112,4.4,11.3,81,0.00,,SCT075,0.04,VWS V13.01,2013-03-10 08:45:00,
2013-03-10 19:00:00,80.2,73.8,29.76,SE,135,3.1,10.0,81,0.00,,SCT075,0.04,VWS V13.01,2013-03-10 09:00:00,
2013-03-10 19:15:00,80.0,72.9,29.76,South,180,0.6,2.5,79,0.00,,SCT075,0.04,VWS V13.01,2013-03-10 09:15:00,
2013-03-10 19:30:00,80.0,71.8,29.76,ESE,112,3.1,8.7,76,0.00,,SCT075,0.04,VWS V13.01,2013-03-10 09:30:00,
2013-03-10 19:45:00,80.3,72.1,29.77,SE,135,3.1,8.7,76,0.00,,SCT075,0.04,VWS V13.01,2013-03-10 09:45:00,
2013-03-10 20:00:00,80.1,72.2,29.77,SE,135,3.1,7.5,77,0.00,,SCT075,0.04,VWS V13.01,2013-03-10 10:00:00,
2013-03-10 20:15:00,80.1,72.6,29.78,ESE,112,1.9,7.5,78,0.00,,SCT075,0.04,VWS V13.01,2013-03-10 10:15:00,
2013-03-10 20:30:00,79.8,72.7,29.78,SE,135,1.9,8.7,79,0.00,,SCT075,0.04,VWS V13.01,2013-03-10 10:30:00,
2013-03-10 20:45:00,79.5,72.4,29.79,SE,135,3.1,7.5,79,0.00,,SCT075,0.04,VWS V13.01,2013-03-10 10:45:00,
2013-03-10 21:00:00,79.3,72.2,29.79,ESE,112,3.1,11.3,79,0.00,,SCT075,0.04,VWS V13.01,2013-03-10 11:00:00,
2013-03-10 21:15:00,79.3,72.2,29.80,SE,135,3.1,10.0,79,0.00,,SCT075,0.04,VWS V13.01,2013-03-10 11:15:00,
2013-03-10 21:30:00,79.3,72.2,29.80,ESE,112,4.4,10.0,79,0.00,,SCT075,0.04,VWS V13.01,2013-03-10 11:30:00,
2013-03-10 21:45:00,79.1,72.0,29.80,SE,135,3.1,11.3,79,0.00,,SCT075,0.04,VWS V13.01,2013-03-10 11:45:00,
2013-03-10 22:00:00,79.0,71.9,29.80,SE,135,4.4,17.5,79,0.00,,SCT075,0.04,VWS V13.01,2013-03-10 12:00:00,
2013-03-10 22:15:00,78.6,71.6,29.80,SE,135,3.1,11.3,79,0.00,,SCT075,0.04,VWS V13.01,2013-03-10 12:15:00,
2013-03-10 22:30:00,78.2,71.5,29.80,ESE,112,1.9,5.0,80,0.00,,SCT075,0.04,VWS V13.01,2013-03-10 12:30:00,
2013-03-10 22:45:00,77.7,71.4,29.80,SE,135,1.9,6.2,81,0.00,,SCT075,0.04,VWS V13.01,2013-03-10 12:45:00,
2013-03-10 23:00:00,77.2,71.3,29.80,SE,135,1.9,5.0,82,0.00,,SCT075,0.04,VWS V13.01,2013-03-10 13:00:00,
2013-03-10 23:15:00,76.9,71.0,29.80,SE,135,1.9,3.8,82,0.00,,SCT075,0.04,VWS V13.01,2013-03-10 13:15:00,
2013-03-10 23:30:00,76.6,70.7,29.79,ESE,112,0.6,3.8,82,0.00,,SCT075,0.04,VWS V13.01,2013-03-10 13:30:00,
2013-03-10 23:45:00,76.3,70.8,29.79,ESE,112,0.6,1.3,83,0.00,,SCT075,0.04,VWS V13.01,2013-03-10 13:45:00,